createdAt,value
2018-08-20T00:00:15.777Z,49.70
2018-08-20T00:02:49.260Z,49.70
2018-08-20T00:05:23.738Z,49.70
2018-08-20T00:07:58.430Z,49.40
2018-08-20T00:10:31.928Z,49.60
2018-08-20T00:13:05.327Z,49.70
2018-08-20T00:15:38.842Z,51.10
2018-08-20T00:18:17.819Z,51.80
2018-08-20T00:20:51.248Z,53.20
2018-08-20T00:23:25.291Z,53.90
2018-08-20T00:25:59.624Z,53.60
2018-08-20T00:28:33.078Z,52.50
2018-08-20T00:31:06.939Z,52.70
2018-08-20T00:33:40.328Z,53.20
2018-08-20T00:36:14.562Z,53.50
2018-08-20T00:38:47.948Z,52.80
2018-08-20T00:41:21.344Z,52.50
2018-08-20T00:43:54.726Z,53.00
2018-08-20T00:46:28.138Z,53.00
2018-08-20T00:49:01.517Z,53.00
2018-08-20T00:51:35.162Z,53.30
2018-08-20T00:54:08.583Z,53.10
2018-08-20T00:56:42.000Z,52.70
2018-08-20T00:59:15.378Z,52.80
2018-08-20T01:05:17.361Z,53.60
2018-08-20T01:07:53.250Z,53.50
2018-08-20T01:10:26.665Z,53.80
2018-08-20T01:13:00.083Z,54.10
2018-08-20T01:15:33.508Z,54.80
2018-08-20T01:18:08.039Z,54.40
2018-08-20T01:20:41.442Z,54.60
2018-08-20T01:23:14.850Z,54.80
2018-08-20T01:25:48.252Z,54.00
2018-08-20T01:28:21.756Z,54.80
2018-08-20T01:30:55.167Z,54.60
2018-08-20T01:33:28.592Z,55.10
2018-08-20T01:36:02.055Z,55.20
2018-08-20T01:38:35.471Z,55.20
2018-08-20T01:41:08.883Z,55.70
2018-08-20T01:43:47.114Z,55.90
2018-08-20T01:46:20.534Z,56.10
2018-08-20T01:48:54.072Z,56.00
2018-08-20T01:51:27.623Z,56.50
2018-08-20T01:54:01.061Z,56.80
2018-08-20T01:56:34.475Z,56.00
2018-08-20T01:59:08.020Z,55.70
2018-08-20T02:19:44.043Z,55.70
2018-08-20T02:22:17.451Z,56.90
2018-08-20T02:24:50.879Z,56.60
2018-08-20T02:27:24.291Z,56.90
2018-08-20T02:29:57.757Z,57.20
2018-08-20T02:32:31.180Z,57.00
2018-08-20T02:35:04.899Z,57.80
2018-08-20T02:37:44.963Z,57.50
2018-08-20T02:40:18.790Z,57.30
2018-08-20T02:42:52.249Z,58.30
2018-08-20T02:45:25.688Z,57.50
2018-08-20T02:47:59.108Z,57.40
2018-08-20T02:50:32.527Z,57.30
2018-08-20T02:53:06.031Z,57.00
2018-08-20T02:55:39.485Z,57.30
2018-08-20T02:58:12.940Z,57.40
2018-08-20T03:00:46.423Z,57.40
2018-08-20T03:03:19.848Z,57.70
2018-08-20T03:05:53.354Z,57.30
2018-08-20T03:08:26.763Z,57.20
2018-08-20T03:11:00.200Z,57.00
2018-08-20T03:13:33.602Z,57.50
2018-08-20T03:16:07.078Z,57.10
2018-08-20T03:18:40.451Z,57.30
2018-08-20T03:21:13.906Z,57.40
2018-08-20T03:23:47.368Z,57.00
2018-08-20T03:26:20.873Z,57.60
2018-08-20T03:28:54.316Z,57.40
2018-08-20T03:31:27.810Z,57.10
2018-08-20T03:34:01.225Z,57.20
2018-08-20T03:36:34.652Z,57.40
2018-08-20T03:39:08.519Z,57.00
2018-08-20T03:41:41.994Z,57.70
2018-08-20T03:44:15.427Z,56.60
2018-08-20T03:46:48.930Z,56.80
2018-08-20T03:49:22.402Z,57.40
2018-08-20T03:51:55.866Z,57.00
2018-08-20T03:54:29.270Z,56.50
2018-08-20T03:57:02.744Z,56.50
2018-08-20T03:59:37.250Z,56.50
2018-08-20T04:02:10.659Z,56.50
2018-08-20T04:04:44.074Z,56.60
2018-08-20T04:07:17.568Z,56.60
2018-08-20T04:09:51.002Z,56.40
2018-08-20T04:12:24.403Z,56.70
2018-08-20T04:14:57.823Z,55.90
2018-08-20T04:17:31.214Z,57.40
2018-08-20T04:20:04.746Z,57.70
2018-08-20T04:22:38.140Z,57.80
2018-08-20T04:25:11.589Z,57.70
2018-08-20T04:27:45.055Z,57.70
2018-08-20T04:30:18.493Z,57.80
2018-08-20T04:32:51.886Z,58.00
2018-08-20T04:35:25.327Z,58.30
2018-08-20T04:37:58.750Z,58.40
2018-08-20T04:40:32.221Z,58.10
2018-08-20T04:43:05.675Z,59.00
2018-08-20T04:45:40.674Z,59.20
2018-08-20T04:48:14.088Z,58.80
2018-08-20T04:50:47.587Z,58.80
2018-08-20T04:53:20.921Z,59.60
2018-08-20T04:55:54.340Z,60.00
2018-08-20T04:58:27.742Z,59.70
2018-08-20T05:01:05.908Z,57.40
2018-08-20T05:03:39.312Z,59.10
2018-08-20T05:06:12.758Z,60.20
2018-08-20T05:08:46.158Z,59.80
2018-08-20T05:11:19.598Z,59.90
2018-08-20T05:13:53.023Z,59.90
2018-08-20T05:16:26.450Z,59.80
2018-08-20T05:18:59.946Z,60.10
2018-08-20T05:21:36.636Z,60.20
2018-08-20T05:24:10.035Z,59.90
2018-08-20T05:26:43.452Z,60.50
2018-08-20T05:29:16.906Z,60.50
2018-08-20T05:31:50.346Z,60.00
2018-08-20T05:34:23.748Z,60.80
2018-08-20T05:36:57.175Z,61.20
2018-08-20T05:39:30.627Z,61.60
2018-08-20T05:42:04.115Z,62.80
2018-08-20T05:44:37.540Z,62.20
2018-08-20T05:47:11.003Z,62.60
2018-08-20T05:49:44.407Z,61.70
2018-08-20T05:52:17.901Z,61.90
2018-08-20T05:54:51.339Z,61.20
2018-08-20T05:57:24.762Z,59.50
2018-08-20T05:59:58.447Z,58.70
2018-08-20T06:02:31.863Z,59.80
2018-08-20T06:05:05.368Z,58.60
2018-08-20T06:07:38.838Z,58.60
2018-08-20T06:10:12.379Z,60.20
2018-08-20T06:12:45.817Z,59.70
2018-08-20T06:15:19.272Z,57.00
2018-08-20T06:17:52.748Z,59.90
2018-08-20T06:20:26.194Z,60.40
2018-08-20T06:23:18.409Z,59.00
2018-08-20T06:25:51.964Z,59.40
2018-08-20T06:28:25.418Z,58.20
2018-08-20T06:30:58.904Z,58.00
2018-08-20T06:33:32.325Z,58.60
2018-08-20T06:36:05.830Z,58.30
2018-08-20T06:38:39.255Z,58.70
2018-08-20T06:41:12.710Z,58.00
2018-08-20T06:43:46.123Z,58.50
2018-08-20T06:46:19.540Z,59.90
2018-08-20T06:48:53.047Z,59.10
2018-08-20T06:51:26.487Z,59.10
2018-08-20T06:54:00.055Z,60.20
2018-08-20T06:56:33.527Z,58.90
2018-08-20T06:59:07.034Z,59.50
2018-08-20T07:01:40.463Z,58.90
2018-08-20T07:04:13.897Z,59.30
2018-08-20T07:06:47.315Z,61.90
2018-08-20T07:09:20.745Z,62.30
2018-08-20T07:11:54.261Z,61.00
2018-08-20T07:14:27.626Z,59.60
2018-08-20T07:17:01.067Z,59.60
2018-08-20T07:19:34.517Z,58.60
2018-08-20T07:22:07.968Z,61.00
2018-08-20T07:24:46.050Z,60.40
2018-08-20T07:27:19.480Z,60.60
2018-08-20T07:29:52.956Z,60.20
2018-08-20T07:32:26.381Z,59.50
2018-08-20T07:34:59.823Z,58.90
2018-08-20T07:37:33.259Z,57.80
2018-08-20T07:40:07.611Z,57.20
2018-08-20T07:42:41.056Z,57.90
2018-08-20T07:45:14.519Z,59.90
2018-08-20T07:47:47.957Z,60.20
2018-08-20T07:50:22.437Z,57.50
2018-08-20T07:52:55.890Z,58.10
2018-08-20T07:55:29.389Z,57.50
2018-08-20T07:58:02.847Z,58.00
2018-08-20T08:00:36.365Z,59.00
2018-08-20T08:03:09.791Z,57.40
2018-08-20T08:05:43.242Z,57.90
2018-08-20T08:08:16.678Z,57.90
2018-08-20T08:10:50.231Z,57.50
2018-08-20T08:13:23.811Z,57.00
2018-08-20T08:15:57.255Z,56.10
2018-08-20T08:18:30.868Z,55.30
2018-08-20T08:21:04.365Z,54.60
2018-08-20T08:23:37.823Z,56.60
2018-08-20T08:26:11.263Z,54.00
2018-08-20T08:28:44.675Z,53.50
2018-08-20T08:31:18.127Z,53.20
2018-08-20T08:33:51.570Z,52.50
2018-08-20T08:36:25.015Z,51.60
2018-08-20T08:38:58.476Z,50.50
2018-08-20T08:41:31.922Z,50.80
2018-08-20T08:44:05.402Z,51.20
2018-08-20T08:46:38.854Z,51.70
2018-08-20T08:49:12.299Z,51.90
2018-08-20T08:51:45.735Z,51.30
2018-08-20T08:54:19.181Z,50.40
2018-08-20T08:56:52.619Z,50.90
2018-08-20T08:59:26.057Z,51.30
2018-08-20T09:01:59.502Z,50.50
2018-08-20T09:04:32.919Z,50.50
2018-08-20T09:07:06.350Z,50.00
2018-08-20T09:09:39.751Z,49.90
2018-08-20T09:12:13.187Z,50.50
2018-08-20T09:14:46.646Z,50.00
2018-08-20T09:17:20.074Z,49.70
2018-08-20T09:19:53.478Z,49.20
2018-08-20T09:22:26.953Z,49.20
2018-08-20T09:25:00.368Z,49.10
2018-08-20T09:27:34.459Z,49.10
2018-08-20T09:30:11.339Z,49.10
2018-08-20T09:32:45.538Z,49.80
2018-08-20T09:35:19.006Z,49.20
2018-08-20T09:37:52.416Z,49.40
2018-08-20T09:40:25.850Z,49.70
2018-08-20T09:42:59.282Z,49.70
2018-08-20T09:45:32.703Z,49.20
2018-08-20T09:48:06.151Z,49.10
2018-08-20T09:50:40.671Z,49.60
2018-08-20T09:53:14.146Z,49.50
2018-08-20T09:55:47.557Z,49.20
2018-08-20T09:58:20.967Z,49.10
2018-08-20T10:00:57.746Z,48.90
2018-08-20T10:03:31.158Z,47.70
2018-08-20T10:06:04.630Z,47.70
2018-08-20T10:08:38.034Z,48.00
2018-08-20T10:11:12.182Z,47.50
2018-08-20T10:13:45.634Z,47.70
2018-08-20T10:16:19.074Z,47.70
2018-08-20T10:18:52.837Z,47.60
2018-08-20T10:21:26.278Z,46.90
2018-08-20T10:23:59.726Z,50.10
2018-08-20T10:26:33.167Z,48.20
2018-08-20T10:29:06.601Z,48.60
2018-08-20T10:31:40.071Z,47.20
2018-08-20T10:34:14.561Z,47.00
2018-08-20T10:36:48.003Z,48.10
2018-08-20T10:39:21.424Z,45.10
2018-08-20T10:41:54.903Z,45.30
2018-08-20T10:44:28.411Z,44.80
2018-08-20T10:47:01.893Z,45.50
2018-08-20T10:49:35.316Z,44.90
2018-08-20T10:52:08.764Z,45.70
2018-08-20T10:54:42.257Z,45.00
2018-08-20T10:57:15.735Z,44.30
2018-08-20T10:59:50.067Z,45.40
2018-08-20T11:02:23.502Z,45.60
2018-08-20T11:04:56.978Z,45.70
2018-08-20T11:07:30.426Z,46.60
2018-08-20T11:10:03.974Z,47.60
2018-08-20T11:12:37.714Z,44.80
2018-08-20T11:15:12.457Z,44.20
2018-08-20T11:17:45.890Z,45.20
2018-08-20T11:20:19.286Z,46.70
2018-08-20T11:22:52.724Z,44.50
2018-08-20T11:25:26.149Z,44.20
2018-08-20T11:27:59.602Z,44.20
2018-08-20T11:30:33.042Z,43.80
2018-08-20T11:33:06.495Z,45.30
2018-08-20T11:35:39.899Z,44.00
2018-08-20T11:38:13.326Z,44.20
2018-08-20T11:40:46.795Z,44.50
2018-08-20T11:43:21.343Z,45.90
2018-08-20T11:45:54.726Z,45.00
2018-08-20T11:48:28.158Z,45.30
2018-08-20T11:51:04.870Z,46.00
2018-08-20T11:53:38.299Z,45.40
2018-08-20T11:56:11.721Z,45.30
2018-08-20T11:58:45.154Z,45.30
2018-08-20T12:01:18.595Z,45.00
2018-08-20T12:03:54.093Z,44.60
2018-08-20T12:06:29.527Z,45.40
2018-08-20T12:09:03.019Z,45.70
2018-08-20T12:11:36.506Z,45.50
2018-08-20T12:14:10.076Z,45.40
2018-08-20T12:16:43.455Z,45.00
2018-08-20T12:19:16.922Z,45.50
2018-08-20T12:21:50.334Z,45.50
2018-08-20T12:24:23.783Z,44.10
2018-08-20T12:26:57.203Z,44.80
2018-08-20T12:29:31.693Z,44.70
2018-08-20T12:32:05.105Z,45.50
2018-08-20T12:34:38.548Z,45.10
2018-08-20T12:37:14.585Z,45.80
2018-08-20T12:39:48.148Z,44.80
2018-08-20T12:42:21.531Z,44.90
2018-08-20T12:44:54.961Z,45.20
2018-08-20T12:47:28.386Z,44.60
2018-08-20T12:50:01.886Z,44.40
2018-08-20T12:52:36.960Z,43.90
2018-08-20T12:55:10.375Z,44.00
2018-08-20T12:57:44.036Z,45.60
2018-08-20T13:00:17.611Z,43.90
2018-08-20T13:02:51.045Z,44.60
2018-08-20T13:05:24.532Z,44.50
2018-08-20T13:07:57.967Z,44.70
2018-08-20T13:10:33.475Z,44.50
2018-08-20T13:13:06.947Z,44.60
2018-08-20T13:15:40.432Z,43.20
2018-08-20T13:18:13.859Z,43.80
2018-08-20T13:20:47.321Z,43.90
2018-08-20T13:23:20.751Z,43.60
2018-08-20T13:25:54.163Z,42.90
2018-08-20T13:28:27.630Z,44.70
2018-08-20T13:31:01.351Z,43.00
2018-08-20T13:33:34.771Z,44.20
2018-08-20T13:36:08.183Z,43.30
2018-08-20T13:38:41.622Z,43.30
2018-08-20T13:41:15.147Z,44.70
2018-08-20T13:43:48.587Z,43.80
2018-08-20T13:46:22.021Z,44.40
2018-08-20T13:48:55.463Z,43.60
2018-08-20T13:51:28.910Z,43.30
2018-08-20T13:54:02.327Z,43.70
2018-08-20T13:56:35.743Z,43.50
2018-08-20T13:59:09.817Z,43.40
2018-08-20T14:01:43.244Z,43.70
2018-08-20T14:04:16.775Z,43.50
2018-08-20T14:06:50.204Z,43.00
2018-08-20T14:09:23.743Z,42.10
2018-08-20T14:11:57.158Z,44.00
2018-08-20T14:14:30.606Z,42.50
2018-08-20T14:17:04.119Z,43.10
2018-08-20T14:19:37.555Z,43.10
2018-08-20T14:22:10.962Z,42.40
2018-08-20T14:24:44.429Z,42.50
2018-08-20T14:27:17.849Z,42.70
2018-08-20T14:29:51.292Z,41.90
2018-08-20T14:32:24.730Z,44.10
2018-08-20T14:34:58.475Z,42.40
2018-08-20T14:37:31.934Z,43.00
2018-08-20T14:40:07.898Z,42.20
2018-08-20T14:42:41.422Z,42.60
2018-08-20T14:45:16.779Z,43.30
2018-08-20T14:47:50.233Z,42.30
2018-08-20T14:50:23.731Z,42.90
2018-08-20T14:52:57.238Z,42.90
2018-08-20T14:55:30.754Z,42.70
2018-08-20T14:58:04.242Z,43.60
2018-08-20T15:00:37.707Z,43.30
2018-08-20T15:03:11.127Z,42.70
2018-08-20T15:05:45.730Z,43.40
2018-08-20T15:08:19.160Z,42.60
2018-08-20T15:10:52.631Z,42.90
2018-08-20T15:13:26.072Z,42.80
2018-08-20T15:15:59.590Z,42.70
2018-08-20T15:18:33.015Z,42.70
2018-08-20T15:21:06.543Z,42.90
2018-08-20T15:23:39.950Z,42.50
2018-08-20T15:26:13.406Z,42.10
2018-08-20T15:28:46.807Z,42.40
2018-08-20T15:31:21.304Z,42.90
2018-08-20T15:33:54.816Z,42.30
2018-08-20T15:36:28.375Z,42.20
2018-08-20T15:39:01.815Z,42.70
2018-08-20T15:41:35.735Z,42.50
2018-08-20T15:44:12.455Z,44.00
2018-08-20T15:46:45.903Z,43.80
2018-08-20T15:49:19.347Z,44.10
2018-08-20T15:51:52.784Z,44.70
2018-08-20T15:54:26.182Z,44.90
2018-08-20T15:56:59.635Z,45.00
2018-08-20T15:59:33.041Z,44.50
2018-08-20T16:02:06.578Z,43.80
2018-08-20T16:04:39.979Z,43.90
2018-08-20T16:07:13.511Z,44.40
2018-08-20T16:09:46.926Z,43.60
2018-08-20T16:12:20.370Z,44.00
2018-08-20T16:14:58.508Z,43.50
2018-08-20T16:17:34.555Z,44.10
2018-08-20T16:20:11.505Z,43.60
2018-08-20T16:22:50.068Z,43.40
2018-08-20T16:25:23.546Z,43.50
2018-08-20T16:27:56.994Z,43.10
2018-08-20T16:30:30.487Z,43.50
2018-08-20T16:33:03.952Z,43.60
2018-08-20T16:45:55.131Z,43.00
2018-08-20T16:48:28.647Z,42.90
2018-08-20T16:51:15.961Z,43.60
2018-08-20T16:53:49.707Z,43.00
2018-08-20T16:56:23.153Z,43.30
2018-08-20T16:58:56.602Z,43.30
2018-08-20T17:01:33.579Z,44.00
2018-08-20T17:04:21.204Z,43.60
2018-08-20T17:09:52.522Z,44.30
2018-08-20T17:12:25.958Z,44.10
2018-08-20T17:14:59.421Z,44.50
2018-08-20T17:17:32.778Z,44.50
2018-08-20T17:20:07.186Z,44.90
2018-08-20T17:22:41.068Z,44.80
2018-08-20T17:25:14.496Z,44.60
2018-08-20T17:27:53.306Z,44.90
2018-08-20T17:30:26.731Z,45.10
2018-08-20T17:33:00.243Z,44.70
2018-08-20T17:35:33.707Z,45.30
2018-08-20T17:38:07.254Z,45.20
2018-08-20T17:40:40.726Z,45.20
2018-08-20T17:43:14.219Z,45.40
2018-08-20T17:45:47.715Z,45.50
2018-08-20T17:48:26.554Z,45.50
2018-08-20T17:51:02.032Z,46.20
2018-08-20T17:53:46.719Z,45.50
2018-08-20T17:56:22.202Z,46.10
2018-08-20T17:59:00.850Z,45.70
2018-08-20T18:01:35.923Z,45.60
2018-08-20T18:04:09.778Z,45.80
2018-08-20T18:06:47.718Z,46.10
2018-08-20T18:09:21.339Z,46.30
2018-08-20T18:11:55.681Z,46.30
2018-08-20T18:14:29.119Z,46.40
2018-08-20T18:17:02.664Z,46.80
2018-08-20T18:19:38.367Z,46.60
2018-08-20T18:22:11.817Z,46.60
2018-08-20T18:24:45.843Z,46.90
2018-08-20T18:27:19.381Z,46.80
2018-08-20T18:29:52.873Z,47.20
2018-08-20T18:32:26.328Z,47.20
2018-08-20T18:34:59.895Z,47.20
2018-08-20T18:37:37.603Z,46.80
2018-08-20T18:40:11.131Z,47.00
2018-08-20T18:42:46.610Z,46.70
2018-08-20T18:45:22.165Z,46.80
2018-08-20T18:47:55.590Z,47.00
2018-08-20T18:50:29.030Z,46.90
2018-08-20T18:53:02.506Z,46.90
2018-08-20T18:55:36.183Z,47.20
2018-08-20T18:58:09.619Z,47.00
2018-08-20T19:00:44.139Z,46.60
2018-08-20T19:03:17.558Z,47.20
2018-08-20T19:05:53.214Z,47.50
2018-08-20T19:08:30.594Z,48.60
2018-08-20T19:11:04.085Z,48.80
2018-08-20T19:13:37.709Z,49.00
2018-08-20T19:16:37.547Z,49.40
2018-08-20T19:19:11.000Z,49.60
2018-08-20T19:21:44.467Z,49.80
2018-08-20T19:24:18.992Z,49.90
2018-08-20T19:26:52.555Z,49.60
2018-08-20T19:29:28.484Z,50.20
2018-08-20T19:32:01.975Z,50.30
2018-08-20T19:34:35.456Z,50.40
2018-08-20T19:37:09.142Z,50.50
2018-08-20T19:39:42.605Z,50.70
2018-08-20T19:42:22.499Z,50.70
2018-08-20T19:44:56.051Z,50.80
2018-08-20T19:47:29.534Z,51.00
2018-08-20T19:50:03.134Z,50.90
2018-08-20T19:52:36.579Z,51.10
2018-08-20T19:55:11.849Z,51.20
2018-08-20T19:57:45.321Z,51.30
2018-08-20T20:00:18.778Z,51.40
2018-08-20T20:02:52.278Z,51.50
2018-08-20T20:05:25.775Z,51.20
2018-08-20T20:08:03.602Z,51.40
2018-08-20T20:10:39.884Z,51.20
2018-08-20T20:13:13.284Z,51.20
2018-08-20T20:15:52.029Z,51.40
2018-08-20T20:18:25.437Z,51.60
2018-08-20T20:20:58.907Z,51.80
2018-08-20T20:23:36.833Z,51.80
2018-08-20T20:26:10.321Z,51.90
2018-08-20T20:28:44.738Z,52.10
2018-08-20T20:31:18.287Z,52.20
2018-08-20T20:33:51.846Z,52.30
2018-08-20T20:36:27.266Z,52.30
2018-08-20T20:39:01.062Z,52.40
2018-08-20T20:41:34.502Z,52.30
2018-08-20T20:44:08.598Z,52.00
2018-08-20T20:46:42.086Z,52.60
2018-08-20T20:49:15.543Z,52.60
2018-08-20T20:51:48.998Z,52.80
2018-08-20T20:54:22.478Z,52.50
2018-08-20T20:56:56.003Z,52.70
2018-08-20T20:59:29.489Z,53.00
2018-08-20T21:02:02.967Z,53.30
2018-08-20T21:04:36.954Z,53.20
2018-08-20T21:07:10.419Z,53.20
2018-08-20T21:09:47.926Z,53.00
2018-08-20T21:12:21.375Z,53.50
2018-08-20T21:14:54.946Z,54.50
2018-08-20T21:17:28.583Z,54.70
2018-08-20T21:20:02.286Z,54.60
2018-08-20T21:22:36.437Z,54.30
2018-08-20T21:25:10.013Z,54.60
2018-08-20T21:27:44.758Z,54.10
2018-08-20T21:30:18.215Z,53.70
2018-08-20T21:32:51.671Z,53.70
2018-08-20T21:35:25.114Z,53.60
2018-08-20T21:37:58.606Z,53.60
2018-08-20T21:40:37.019Z,53.60
2018-08-20T21:43:10.484Z,53.90
2018-08-20T21:45:43.960Z,53.90
2018-08-20T21:48:17.430Z,53.80
2018-08-20T21:50:50.900Z,53.90
2018-08-20T21:53:28.609Z,53.80
2018-08-20T21:56:02.060Z,53.90
2018-08-20T21:58:37.407Z,53.80
2018-08-20T22:01:12.466Z,54.30
2018-08-20T22:03:46.204Z,54.10
2018-08-20T22:06:19.690Z,54.80
2018-08-20T22:08:54.183Z,54.60
2018-08-20T22:11:27.674Z,55.10
2018-08-20T22:14:01.122Z,54.80
2018-08-20T22:16:34.602Z,54.70
2018-08-20T22:19:08.104Z,54.50
2018-08-20T22:21:41.602Z,54.50
2018-08-20T22:24:15.075Z,54.60
2018-08-20T22:26:56.600Z,54.00
2018-08-20T22:29:35.861Z,55.10
2018-08-20T22:32:09.459Z,55.20
2018-08-20T22:34:42.904Z,54.40
2018-08-20T22:37:19.245Z,55.60
2018-08-20T22:39:57.911Z,55.80
2018-08-20T22:42:43.550Z,57.40
2018-08-20T22:45:19.057Z,58.10
2018-08-20T22:47:52.903Z,58.30
2018-08-20T22:50:26.369Z,57.60
2018-08-20T22:52:59.837Z,57.40
2018-08-20T22:55:33.335Z,57.20
2018-08-20T22:58:09.010Z,57.00
2018-08-20T23:00:42.459Z,56.70
2018-08-20T23:03:15.967Z,56.50
2018-08-20T23:05:49.467Z,56.20
2018-08-20T23:08:22.978Z,56.40
2018-08-20T23:10:56.423Z,56.30
2018-08-20T23:13:30.166Z,56.40
2018-08-20T23:16:03.702Z,56.60
2018-08-20T23:18:37.167Z,56.50
2018-08-20T23:21:10.611Z,56.50
2018-08-20T23:23:44.051Z,57.10
2018-08-20T23:26:17.484Z,57.10
2018-08-20T23:28:50.951Z,56.70
2018-08-20T23:31:24.384Z,57.10
2018-08-20T23:33:57.834Z,57.40
2018-08-20T23:36:31.382Z,57.30
2018-08-20T23:39:10.273Z,57.20
2018-08-20T23:41:43.717Z,57.40
2018-08-20T23:44:17.575Z,57.60
2018-08-20T23:46:51.224Z,58.00
2018-08-20T23:49:24.671Z,58.10
2018-08-20T23:51:58.093Z,58.10
2018-08-20T23:54:31.511Z,58.10
2018-08-20T23:57:04.970Z,58.10
2018-08-20T23:59:38.427Z,58.40
